sensor_id;sensor_type;location;lat;lon;timestamp;P1;durP1;ratioP1;P2;durP2;ratioP2
7193;SDS011;3638;48.820;9.244;2023-11-19T00:00:06;3.97;;;3.63;;
7193;SDS011;3638;48.820;9.244;2023-11-19T00:02:36;5.50;;;4.13;;
7193;SDS011;3638;48.820;9.244;2023-11-19T00:05:04;4.43;;;3.93;;
7193;SDS011;3638;48.820;9.244;2023-11-19T00:07:33;4.23;;;3.53;;
7193;SDS011;3638;48.820;9.244;2023-11-19T00:10:01;4.37;;;3.57;;
7193;SDS011;3638;48.820;9.244;2023-11-19T00:12:35;4.40;;;3.33;;
7193;SDS011;3638;48.820;9.244;2023-11-19T00:15:05;4.77;;;3.77;;
7193;SDS011;3638;48.820;9.244;2023-11-19T00:17:36;4.27;;;3.70;;
7193;SDS011;3638;48.820;9.244;2023-11-19T00:20:04;3.90;;;3.60;;
7193;SDS011;3638;48.820;9.244;2023-11-19T00:22:32;3.90;;;3.50;;
7193;SDS011;3638;48.820;9.244;2023-11-19T00:25:00;4.00;;;3.60;;
7193;SDS011;3638;48.820;9.244;2023-11-19T00:27:27;4.17;;;3.60;;
7193;SDS011;3638;48.820;9.244;2023-11-19T00:29:54;4.00;;;3.60;;
7193;SDS011;3638;48.820;9.244;2023-11-19T00:32:23;4.23;;;3.80;;
7193;SDS011;3638;48.820;9.244;2023-11-19T00:34:50;4.30;;;3.90;;
7193;SDS011;3638;48.820;9.244;2023-11-19T00:37:17;4.17;;;3.77;;
7193;SDS011;3638;48.820;9.244;2023-11-19T00:39:44;4.30;;;3.90;;
7193;SDS011;3638;48.820;9.244;2023-11-19T00:42:12;4.00;;;3.60;;
7193;SDS011;3638;48.820;9.244;2023-11-19T00:44:39;4.90;;;3.90;;
7193;SDS011;3638;48.820;9.244;2023-11-19T00:47:07;4.03;;;3.60;;
7193;SDS011;3638;48.820;9.244;2023-11-19T00:49:35;4.20;;;3.37;;
7193;SDS011;3638;48.820;9.244;2023-11-19T00:52:03;4.77;;;3.40;;
7193;SDS011;3638;48.820;9.244;2023-11-19T00:54:31;3.50;;;3.20;;
7193;SDS011;3638;48.820;9.244;2023-11-19T00:56:58;3.67;;;3.37;;
7193;SDS011;3638;48.820;9.244;2023-11-19T00:59:26;3.33;;;2.93;;
7193;SDS011;3638;48.820;9.244;2023-11-19T01:01:54;3.47;;;3.13;;
7193;SDS011;3638;48.820;9.244;2023-11-19T01:04:21;3.27;;;2.93;;
7193;SDS011;3638;48.820;9.244;2023-11-19T01:06:53;3.50;;;3.20;;
7193;SDS011;3638;48.820;9.244;2023-11-19T01:09:20;3.60;;;3.30;;
7193;SDS011;3638;48.820;9.244;2023-11-19T01:11:48;3.90;;;3.10;;
7193;SDS011;3638;48.820;9.244;2023-11-19T01:14:15;3.33;;;3.03;;
7193;SDS011;3638;48.820;9.244;2023-11-19T01:16:42;3.17;;;2.83;;
7193;SDS011;3638;48.820;9.244;2023-11-19T01:19:10;3.57;;;3.00;;
7193;SDS011;3638;48.820;9.244;2023-11-19T01:21:37;3.60;;;3.30;;
7193;SDS011;3638;48.820;9.244;2023-11-19T01:24:06;3.20;;;3.00;;
7193;SDS011;3638;48.820;9.244;2023-11-19T01:26:34;3.23;;;2.67;;
7193;SDS011;3638;48.820;9.244;2023-11-19T01:29:02;3.37;;;3.07;;
7193;SDS011;3638;48.820;9.244;2023-11-19T01:31:29;3.10;;;2.80;;
7193;SDS011;3638;48.820;9.244;2023-11-19T01:33:58;2.83;;;2.63;;
7193;SDS011;3638;48.820;9.244;2023-11-19T01:36:26;2.83;;;2.63;;
7193;SDS011;3638;48.820;9.244;2023-11-19T01:38:53;3.33;;;3.03;;
7193;SDS011;3638;48.820;9.244;2023-11-19T01:41:21;2.93;;;2.63;;
7193;SDS011;3638;48.820;9.244;2023-11-19T01:43:50;2.70;;;2.50;;
7193;SDS011;3638;48.820;9.244;2023-11-19T01:46:17;2.80;;;2.60;;
7193;SDS011;3638;48.820;9.244;2023-11-19T01:48:44;2.70;;;2.50;;
7193;SDS011;3638;48.820;9.244;2023-11-19T01:51:12;2.90;;;2.60;;
7193;SDS011;3638;48.820;9.244;2023-11-19T01:53:41;2.80;;;2.60;;
7193;SDS011;3638;48.820;9.244;2023-11-19T01:56:10;2.97;;;2.43;;
7193;SDS011;3638;48.820;9.244;2023-11-19T01:58:41;2.43;;;2.30;;
7193;SDS011;3638;48.820;9.244;2023-11-19T02:01:08;2.70;;;2.50;;
7193;SDS011;3638;48.820;9.244;2023-11-19T02:03:36;3.77;;;2.73;;
7193;SDS011;3638;48.820;9.244;2023-11-19T02:06:03;2.63;;;2.40;;
7193;SDS011;3638;48.820;9.244;2023-11-19T02:08:32;2.40;;;2.20;;
7193;SDS011;3638;48.820;9.244;2023-11-19T02:10:59;2.53;;;2.33;;
7193;SDS011;3638;48.820;9.244;2023-11-19T02:13:27;2.60;;;2.40;;
7193;SDS011;3638;48.820;9.244;2023-11-19T02:15:55;4.40;;;2.60;;
7193;SDS011;3638;48.820;9.244;2023-11-19T02:18:24;2.30;;;2.20;;
7193;SDS011;3638;48.820;9.244;2023-11-19T02:20:53;2.10;;;2.00;;
7193;SDS011;3638;48.820;9.244;2023-11-19T02:23:20;2.40;;;2.20;;
7193;SDS011;3638;48.820;9.244;2023-11-19T02:25:51;2.17;;;2.07;;
7193;SDS011;3638;48.820;9.244;2023-11-19T02:28:26;2.20;;;2.10;;
7193;SDS011;3638;48.820;9.244;2023-11-19T02:30:53;2.53;;;2.33;;
7193;SDS011;3638;48.820;9.244;2023-11-19T02:33:21;2.40;;;2.20;;
7193;SDS011;3638;48.820;9.244;2023-11-19T02:35:49;2.63;;;2.43;;
7193;SDS011;3638;48.820;9.244;2023-11-19T02:38:17;3.90;;;2.20;;
7193;SDS011;3638;48.820;9.244;2023-11-19T02:40:45;2.30;;;2.20;;
7193;SDS011;3638;48.820;9.244;2023-11-19T02:43:12;2.20;;;2.10;;
7193;SDS011;3638;48.820;9.244;2023-11-19T02:45:41;2.50;;;2.30;;
7193;SDS011;3638;48.820;9.244;2023-11-19T02:48:10;2.20;;;2.00;;
7193;SDS011;3638;48.820;9.244;2023-11-19T02:50:39;2.30;;;2.10;;
7193;SDS011;3638;48.820;9.244;2023-11-19T02:53:06;2.10;;;2.00;;
7193;SDS011;3638;48.820;9.244;2023-11-19T02:55:33;2.50;;;2.30;;
7193;SDS011;3638;48.820;9.244;2023-11-19T02:58:03;2.70;;;2.13;;
7193;SDS011;3638;48.820;9.244;2023-11-19T03:00:39;2.67;;;2.10;;
7193;SDS011;3638;48.820;9.244;2023-11-19T03:03:17;1.83;;;1.73;;
7193;SDS011;3638;48.820;9.244;2023-11-19T03:05:45;2.10;;;2.00;;
7193;SDS011;3638;48.820;9.244;2023-11-19T03:08:14;3.53;;;1.90;;
7193;SDS011;3638;48.820;9.244;2023-11-19T03:10:42;2.00;;;1.90;;
7193;SDS011;3638;48.820;9.244;2023-11-19T03:13:11;2.30;;;2.10;;
7193;SDS011;3638;48.820;9.244;2023-11-19T03:15:40;2.40;;;2.20;;
7193;SDS011;3638;48.820;9.244;2023-11-19T03:18:08;2.50;;;2.30;;
7193;SDS011;3638;48.820;9.244;2023-11-19T03:20:35;2.07;;;1.90;;
7193;SDS011;3638;48.820;9.244;2023-11-19T03:23:03;2.50;;;2.30;;
7193;SDS011;3638;48.820;9.244;2023-11-19T03:25:31;2.20;;;2.10;;
7193;SDS011;3638;48.820;9.244;2023-11-19T03:27:59;2.30;;;1.90;;
7193;SDS011;3638;48.820;9.244;2023-11-19T03:30:27;1.80;;;1.70;;
7193;SDS011;3638;48.820;9.244;2023-11-19T03:32:56;2.00;;;1.90;;
7193;SDS011;3638;48.820;9.244;2023-11-19T03:35:23;1.80;;;1.70;;
7193;SDS011;3638;48.820;9.244;2023-11-19T03:37:51;1.70;;;1.60;;
7193;SDS011;3638;48.820;9.244;2023-11-19T03:40:17;1.90;;;1.80;;
7193;SDS011;3638;48.820;9.244;2023-11-19T03:42:45;1.60;;;1.53;;
7193;SDS011;3638;48.820;9.244;2023-11-19T03:45:12;1.80;;;1.70;;
7193;SDS011;3638;48.820;9.244;2023-11-19T03:47:40;2.00;;;1.80;;
7193;SDS011;3638;48.820;9.244;2023-11-19T03:50:09;1.70;;;1.60;;
7193;SDS011;3638;48.820;9.244;2023-11-19T03:52:36;2.03;;;1.60;;
7193;SDS011;3638;48.820;9.244;2023-11-19T03:55:04;1.80;;;1.70;;
7193;SDS011;3638;48.820;9.244;2023-11-19T03:57:33;1.80;;;1.70;;
7193;SDS011;3638;48.820;9.244;2023-11-19T04:00:00;1.87;;;1.60;;
7193;SDS011;3638;48.820;9.244;2023-11-19T04:02:34;1.70;;;1.60;;
7193;SDS011;3638;48.820;9.244;2023-11-19T04:05:02;1.70;;;1.60;;
7193;SDS011;3638;48.820;9.244;2023-11-19T04:07:31;2.17;;;1.80;;
7193;SDS011;3638;48.820;9.244;2023-11-19T04:09:59;2.23;;;1.93;;
7193;SDS011;3638;48.820;9.244;2023-11-19T04:12:27;4.10;;;1.70;;
7193;SDS011;3638;48.820;9.244;2023-11-19T04:14:54;2.10;;;1.90;;
7193;SDS011;3638;48.820;9.244;2023-11-19T04:17:22;1.90;;;1.80;;
7193;SDS011;3638;48.820;9.244;2023-11-19T04:19:50;2.00;;;1.90;;
7193;SDS011;3638;48.820;9.244;2023-11-19T04:22:17;2.57;;;2.00;;
7193;SDS011;3638;48.820;9.244;2023-11-19T04:24:45;2.00;;;1.90;;
7193;SDS011;3638;48.820;9.244;2023-11-19T04:27:13;2.43;;;1.70;;
7193;SDS011;3638;48.820;9.244;2023-11-19T04:29:41;1.90;;;1.80;;
7193;SDS011;3638;48.820;9.244;2023-11-19T04:32:08;1.80;;;1.70;;
7193;SDS011;3638;48.820;9.244;2023-11-19T04:34:35;1.87;;;1.70;;
7193;SDS011;3638;48.820;9.244;2023-11-19T04:37:02;1.83;;;1.73;;
7193;SDS011;3638;48.820;9.244;2023-11-19T04:39:30;1.70;;;1.60;;
7193;SDS011;3638;48.820;9.244;2023-11-19T04:41:58;1.70;;;1.60;;
7193;SDS011;3638;48.820;9.244;2023-11-19T04:44:26;1.80;;;1.70;;
7193;SDS011;3638;48.820;9.244;2023-11-19T04:46:54;1.50;;;1.40;;
7193;SDS011;3638;48.820;9.244;2023-11-19T04:49:22;2.47;;;1.63;;
7193;SDS011;3638;48.820;9.244;2023-11-19T04:51:51;1.70;;;1.60;;
7193;SDS011;3638;48.820;9.244;2023-11-19T04:54:19;1.80;;;1.70;;
7193;SDS011;3638;48.820;9.244;2023-11-19T04:56:46;1.50;;;1.50;;
7193;SDS011;3638;48.820;9.244;2023-11-19T04:59:15;1.80;;;1.70;;
7193;SDS011;3638;48.820;9.244;2023-11-19T05:01:46;1.80;;;1.70;;
7193;SDS011;3638;48.820;9.244;2023-11-19T05:04:13;1.60;;;1.50;;
7193;SDS011;3638;48.820;9.244;2023-11-19T05:06:40;1.60;;;1.50;;
7193;SDS011;3638;48.820;9.244;2023-11-19T05:09:08;1.43;;;1.37;;
7193;SDS011;3638;48.820;9.244;2023-11-19T05:11:38;1.40;;;1.40;;
7193;SDS011;3638;48.820;9.244;2023-11-19T05:14:05;2.40;;;1.40;;
7193;SDS011;3638;48.820;9.244;2023-11-19T05:16:35;1.40;;;1.30;;
7193;SDS011;3638;48.820;9.244;2023-11-19T05:19:03;1.37;;;1.27;;
7193;SDS011;3638;48.820;9.244;2023-11-19T05:21:31;1.27;;;1.27;;
7193;SDS011;3638;48.820;9.244;2023-11-19T05:23:58;1.30;;;1.20;;
7193;SDS011;3638;48.820;9.244;2023-11-19T05:26:25;1.30;;;1.30;;
7193;SDS011;3638;48.820;9.244;2023-11-19T05:28:53;1.20;;;1.20;;
7193;SDS011;3638;48.820;9.244;2023-11-19T05:31:20;1.20;;;1.20;;
7193;SDS011;3638;48.820;9.244;2023-11-19T05:33:48;1.33;;;1.30;;
7193;SDS011;3638;48.820;9.244;2023-11-19T05:36:15;1.40;;;1.30;;
7193;SDS011;3638;48.820;9.244;2023-11-19T05:38:43;1.10;;;1.10;;
7193;SDS011;3638;48.820;9.244;2023-11-19T05:41:10;1.17;;;1.17;;
7193;SDS011;3638;48.820;9.244;2023-11-19T05:43:37;1.47;;;1.20;;
7193;SDS011;3638;48.820;9.244;2023-11-19T05:46:06;1.20;;;1.20;;
7193;SDS011;3638;48.820;9.244;2023-11-19T05:48:34;1.40;;;1.30;;
7193;SDS011;3638;48.820;9.244;2023-11-19T05:51:02;1.20;;;1.20;;
7193;SDS011;3638;48.820;9.244;2023-11-19T05:53:30;1.10;;;1.10;;
7193;SDS011;3638;48.820;9.244;2023-11-19T05:55:59;1.20;;;1.20;;
7193;SDS011;3638;48.820;9.244;2023-11-19T05:58:29;1.30;;;1.30;;
7193;SDS011;3638;48.820;9.244;2023-11-19T06:00:57;1.70;;;1.30;;
7193;SDS011;3638;48.820;9.244;2023-11-19T06:03:26;1.37;;;1.27;;
7193;SDS011;3638;48.820;9.244;2023-11-19T06:05:54;1.40;;;1.30;;
7193;SDS011;3638;48.820;9.244;2023-11-19T06:08:22;1.20;;;1.20;;
7193;SDS011;3638;48.820;9.244;2023-11-19T06:10:52;1.30;;;1.20;;
7193;SDS011;3638;48.820;9.244;2023-11-19T06:13:19;1.20;;;1.20;;
7193;SDS011;3638;48.820;9.244;2023-11-19T06:15:46;1.40;;;1.30;;
7193;SDS011;3638;48.820;9.244;2023-11-19T06:18:15;1.40;;;1.40;;
7193;SDS011;3638;48.820;9.244;2023-11-19T06:20:44;1.30;;;1.30;;
7193;SDS011;3638;48.820;9.244;2023-11-19T06:23:12;1.10;;;1.10;;
7193;SDS011;3638;48.820;9.244;2023-11-19T06:25:40;1.20;;;1.20;;
7193;SDS011;3638;48.820;9.244;2023-11-19T06:28:08;1.67;;;1.20;;
7193;SDS011;3638;48.820;9.244;2023-11-19T06:30:35;1.40;;;1.30;;
7193;SDS011;3638;48.820;9.244;2023-11-19T06:33:02;2.30;;;1.60;;
7193;SDS011;3638;48.820;9.244;2023-11-19T06:35:29;1.23;;;1.20;;
7193;SDS011;3638;48.820;9.244;2023-11-19T06:38:01;1.67;;;1.57;;
7193;SDS011;3638;48.820;9.244;2023-11-19T06:40:29;1.30;;;1.30;;
7193;SDS011;3638;48.820;9.244;2023-11-19T06:42:57;1.20;;;1.20;;
7193;SDS011;3638;48.820;9.244;2023-11-19T06:45:25;1.10;;;1.10;;
7193;SDS011;3638;48.820;9.244;2023-11-19T06:47:52;1.30;;;1.30;;
7193;SDS011;3638;48.820;9.244;2023-11-19T06:50:19;1.10;;;1.10;;
7193;SDS011;3638;48.820;9.244;2023-11-19T06:52:47;1.40;;;1.30;;
7193;SDS011;3638;48.820;9.244;2023-11-19T06:55:15;2.00;;;1.27;;
7193;SDS011;3638;48.820;9.244;2023-11-19T06:57:42;1.50;;;1.40;;
7193;SDS011;3638;48.820;9.244;2023-11-19T07:00:11;1.30;;;1.30;;
7193;SDS011;3638;48.820;9.244;2023-11-19T07:02:39;1.30;;;1.30;;
7193;SDS011;3638;48.820;9.244;2023-11-19T07:05:06;1.20;;;1.20;;
7193;SDS011;3638;48.820;9.244;2023-11-19T07:07:34;1.13;;;1.13;;
7193;SDS011;3638;48.820;9.244;2023-11-19T07:10:02;1.20;;;1.20;;
7193;SDS011;3638;48.820;9.244;2023-11-19T07:12:33;1.40;;;1.30;;
7193;SDS011;3638;48.820;9.244;2023-11-19T07:15:01;1.30;;;1.30;;
7193;SDS011;3638;48.820;9.244;2023-11-19T07:17:30;1.40;;;1.30;;
7193;SDS011;3638;48.820;9.244;2023-11-19T07:20:00;1.43;;;1.33;;
7193;SDS011;3638;48.820;9.244;2023-11-19T07:22:27;1.37;;;1.37;;
7193;SDS011;3638;48.820;9.244;2023-11-19T07:24:55;1.50;;;1.40;;
7193;SDS011;3638;48.820;9.244;2023-11-19T07:27:23;1.50;;;1.40;;
7193;SDS011;3638;48.820;9.244;2023-11-19T07:29:50;1.43;;;1.30;;
7193;SDS011;3638;48.820;9.244;2023-11-19T07:32:17;1.20;;;1.20;;
7193;SDS011;3638;48.820;9.244;2023-11-19T07:34:46;1.20;;;1.20;;
7193;SDS011;3638;48.820;9.244;2023-11-19T07:37:13;1.30;;;1.30;;
7193;SDS011;3638;48.820;9.244;2023-11-19T07:39:42;1.30;;;1.20;;
7193;SDS011;3638;48.820;9.244;2023-11-19T07:42:09;1.30;;;1.30;;
7193;SDS011;3638;48.820;9.244;2023-11-19T07:44:36;1.30;;;1.20;;
7193;SDS011;3638;48.820;9.244;2023-11-19T07:47:03;1.43;;;1.37;;
7193;SDS011;3638;48.820;9.244;2023-11-19T07:49:30;2.33;;;1.50;;
7193;SDS011;3638;48.820;9.244;2023-11-19T07:51:59;2.40;;;2.20;;
7193;SDS011;3638;48.820;9.244;2023-11-19T07:54:28;1.93;;;1.80;;
7193;SDS011;3638;48.820;9.244;2023-11-19T07:56:55;2.20;;;2.10;;
7193;SDS011;3638;48.820;9.244;2023-11-19T07:59:22;1.60;;;1.50;;
7193;SDS011;3638;48.820;9.244;2023-11-19T08:01:49;1.50;;;1.40;;
7193;SDS011;3638;48.820;9.244;2023-11-19T08:04:17;1.80;;;1.70;;
7193;SDS011;3638;48.820;9.244;2023-11-19T08:06:44;1.97;;;1.77;;
7193;SDS011;3638;48.820;9.244;2023-11-19T08:09:13;2.00;;;1.90;;
7193;SDS011;3638;48.820;9.244;2023-11-19T08:11:40;4.30;;;2.07;;
7193;SDS011;3638;48.820;9.244;2023-11-19T08:14:07;1.70;;;1.60;;
7193;SDS011;3638;48.820;9.244;2023-11-19T08:16:35;1.60;;;1.50;;
7193;SDS011;3638;48.820;9.244;2023-11-19T08:19:02;1.33;;;1.23;;
7193;SDS011;3638;48.820;9.244;2023-11-19T08:21:30;1.50;;;1.40;;
7193;SDS011;3638;48.820;9.244;2023-11-19T08:23:57;1.87;;;1.77;;
7193;SDS011;3638;48.820;9.244;2023-11-19T08:26:25;1.93;;;1.60;;
7193;SDS011;3638;48.820;9.244;2023-11-19T08:28:53;2.70;;;1.90;;
7193;SDS011;3638;48.820;9.244;2023-11-19T08:31:20;2.10;;;1.90;;
7193;SDS011;3638;48.820;9.244;2023-11-19T08:33:47;2.30;;;2.10;;
7193;SDS011;3638;48.820;9.244;2023-11-19T08:36:15;3.13;;;1.90;;
7193;SDS011;3638;48.820;9.244;2023-11-19T08:38:42;1.70;;;1.50;;
7193;SDS011;3638;48.820;9.244;2023-11-19T08:41:10;1.33;;;1.23;;
7193;SDS011;3638;48.820;9.244;2023-11-19T08:43:38;1.87;;;1.77;;
7193;SDS011;3638;48.820;9.244;2023-11-19T08:46:09;3.07;;;2.40;;
7193;SDS011;3638;48.820;9.244;2023-11-19T08:48:36;2.10;;;1.63;;
7193;SDS011;3638;48.820;9.244;2023-11-19T08:51:04;1.50;;;1.40;;
7193;SDS011;3638;48.820;9.244;2023-11-19T08:53:31;1.60;;;1.50;;
7193;SDS011;3638;48.820;9.244;2023-11-19T08:55:58;1.60;;;1.50;;
7193;SDS011;3638;48.820;9.244;2023-11-19T08:58:27;2.00;;;1.70;;
7193;SDS011;3638;48.820;9.244;2023-11-19T09:00:57;1.40;;;1.40;;
7193;SDS011;3638;48.820;9.244;2023-11-19T09:03:24;1.43;;;1.40;;
7193;SDS011;3638;48.820;9.244;2023-11-19T09:05:52;1.30;;;1.30;;
7193;SDS011;3638;48.820;9.244;2023-11-19T09:08:19;1.50;;;1.40;;
7193;SDS011;3638;48.820;9.244;2023-11-19T09:10:46;2.60;;;1.90;;
7193;SDS011;3638;48.820;9.244;2023-11-19T09:13:13;1.60;;;1.50;;
7193;SDS011;3638;48.820;9.244;2023-11-19T09:15:41;1.57;;;1.30;;
7193;SDS011;3638;48.820;9.244;2023-11-19T09:18:10;2.13;;;1.30;;
7193;SDS011;3638;48.820;9.244;2023-11-19T09:20:37;2.13;;;1.33;;
7193;SDS011;3638;48.820;9.244;2023-11-19T09:23:04;1.30;;;1.20;;
7193;SDS011;3638;48.820;9.244;2023-11-19T09:25:34;1.73;;;1.60;;
7193;SDS011;3638;48.820;9.244;2023-11-19T09:28:01;1.50;;;1.40;;
7193;SDS011;3638;48.820;9.244;2023-11-19T09:30:28;1.43;;;1.33;;
7193;SDS011;3638;48.820;9.244;2023-11-19T09:32:55;1.83;;;1.50;;
7193;SDS011;3638;48.820;9.244;2023-11-19T09:35:24;1.80;;;1.20;;
7193;SDS011;3638;48.820;9.244;2023-11-19T09:37:51;1.47;;;1.30;;
7193;SDS011;3638;48.820;9.244;2023-11-19T09:40:18;1.58;;;1.48;;
7193;SDS011;3638;48.820;9.244;2023-11-19T09:42:47;1.53;;;1.43;;
7193;SDS011;3638;48.820;9.244;2023-11-19T09:45:15;1.50;;;1.40;;
7193;SDS011;3638;48.820;9.244;2023-11-19T09:47:43;1.77;;;1.53;;
7193;SDS011;3638;48.820;9.244;2023-11-19T09:50:13;1.70;;;1.60;;
7193;SDS011;3638;48.820;9.244;2023-11-19T09:52:45;1.53;;;1.40;;
7193;SDS011;3638;48.820;9.244;2023-11-19T09:55:12;1.90;;;1.70;;
7193;SDS011;3638;48.820;9.244;2023-11-19T09:57:40;1.50;;;1.40;;
7193;SDS011;3638;48.820;9.244;2023-11-19T10:00:09;1.30;;;1.20;;
7193;SDS011;3638;48.820;9.244;2023-11-19T10:02:38;2.33;;;1.30;;
7193;SDS011;3638;48.820;9.244;2023-11-19T10:05:06;1.50;;;1.40;;
7193;SDS011;3638;48.820;9.244;2023-11-19T10:07:34;1.50;;;1.40;;
7193;SDS011;3638;48.820;9.244;2023-11-19T10:10:03;2.05;;;1.88;;
7193;SDS011;3638;48.820;9.244;2023-11-19T10:12:31;1.50;;;1.40;;
7193;SDS011;3638;48.820;9.244;2023-11-19T10:14:58;1.40;;;1.30;;
7193;SDS011;3638;48.820;9.244;2023-11-19T10:17:29;1.25;;;1.15;;
7193;SDS011;3638;48.820;9.244;2023-11-19T10:19:59;1.38;;;1.27;;
7193;SDS011;3638;48.820;9.244;2023-11-19T10:22:27;1.75;;;1.20;;
7193;SDS011;3638;48.820;9.244;2023-11-19T10:24:55;1.20;;;1.10;;
7193;SDS011;3638;48.820;9.244;2023-11-19T10:27:24;1.38;;;1.27;;
7193;SDS011;3638;48.820;9.244;2023-11-19T10:29:52;1.27;;;1.20;;
7193;SDS011;3638;48.820;9.244;2023-11-19T10:32:20;2.35;;;1.30;;
7193;SDS011;3638;48.820;9.244;2023-11-19T10:34:47;1.77;;;1.35;;
7193;SDS011;3638;48.820;9.244;2023-11-19T10:37:27;1.33;;;1.27;;
7193;SDS011;3638;48.820;9.244;2023-11-19T10:39:56;1.40;;;1.30;;
7193;SDS011;3638;48.820;9.244;2023-11-19T10:42:25;1.40;;;1.30;;
7193;SDS011;3638;48.820;9.244;2023-11-19T10:44:52;2.85;;;1.40;;
7193;SDS011;3638;48.820;9.244;2023-11-19T10:47:20;2.20;;;1.42;;
7193;SDS011;3638;48.820;9.244;2023-11-19T10:49:47;1.10;;;1.10;;
7193;SDS011;3638;48.820;9.244;2023-11-19T10:52:16;2.25;;;1.40;;
7193;SDS011;3638;48.820;9.244;2023-11-19T10:54:46;2.20;;;1.30;;
7193;SDS011;3638;48.820;9.244;2023-11-19T10:57:19;3.08;;;1.70;;
7193;SDS011;3638;48.820;9.244;2023-11-19T10:59:49;1.35;;;1.20;;
7193;SDS011;3638;48.820;9.244;2023-11-19T11:02:21;2.05;;;1.40;;
7193;SDS011;3638;48.820;9.244;2023-11-19T11:04:49;4.18;;;2.30;;
7193;SDS011;3638;48.820;9.244;2023-11-19T11:07:16;1.15;;;1.10;;
7193;SDS011;3638;48.820;9.244;2023-11-19T11:09:50;2.08;;;1.10;;
7193;SDS011;3638;48.820;9.244;2023-11-19T11:12:18;1.25;;;1.15;;
7193;SDS011;3638;48.820;9.244;2023-11-19T11:14:51;1.30;;;1.20;;
7193;SDS011;3638;48.820;9.244;2023-11-19T11:17:20;1.20;;;1.10;;
7193;SDS011;3638;48.820;9.244;2023-11-19T11:19:52;2.88;;;1.60;;
7193;SDS011;3638;48.820;9.244;2023-11-19T11:22:19;1.60;;;1.13;;
7193;SDS011;3638;48.820;9.244;2023-11-19T11:24:53;1.23;;;1.13;;
7193;SDS011;3638;48.820;9.244;2023-11-19T11:27:41;1.30;;;1.20;;
7193;SDS011;3638;48.820;9.244;2023-11-19T11:30:20;1.42;;;1.20;;
7193;SDS011;3638;48.820;9.244;2023-11-19T11:32:57;1.95;;;1.48;;
7193;SDS011;3638;48.820;9.244;2023-11-19T11:35:33;5.20;;;1.85;;
7193;SDS011;3638;48.820;9.244;2023-11-19T11:38:08;4.35;;;3.75;;
7193;SDS011;3638;48.820;9.244;2023-11-19T11:40:35;4.55;;;2.53;;
7193;SDS011;3638;48.820;9.244;2023-11-19T11:43:02;1.67;;;1.58;;
7193;SDS011;3638;48.820;9.244;2023-11-19T11:45:38;2.10;;;1.90;;
7193;SDS011;3638;48.820;9.244;2023-11-19T11:48:11;3.42;;;1.50;;
7193;SDS011;3638;48.820;9.244;2023-11-19T11:50:47;2.05;;;1.40;;
7193;SDS011;3638;48.820;9.244;2023-11-19T11:53:16;1.92;;;1.67;;
7193;SDS011;3638;48.820;9.244;2023-11-19T11:55:56;2.42;;;1.58;;
7193;SDS011;3638;48.820;9.244;2023-11-19T11:58:30;3.08;;;1.63;;
7193;SDS011;3638;48.820;9.244;2023-11-19T12:00:59;2.80;;;1.70;;
7193;SDS011;3638;48.820;9.244;2023-11-19T12:03:28;2.03;;;1.52;;
7193;SDS011;3638;48.820;9.244;2023-11-19T12:05:57;3.10;;;2.15;;
7193;SDS011;3638;48.820;9.244;2023-11-19T12:08:25;2.45;;;1.60;;
7193;SDS011;3638;48.820;9.244;2023-11-19T12:10:55;1.85;;;1.73;;
7193;SDS011;3638;48.820;9.244;2023-11-19T12:13:24;1.60;;;1.50;;
7193;SDS011;3638;48.820;9.244;2023-11-19T12:16:09;1.75;;;1.63;;
7193;SDS011;3638;48.820;9.244;2023-11-19T12:18:38;1.50;;;1.40;;
7193;SDS011;3638;48.820;9.244;2023-11-19T12:21:09;1.80;;;1.40;;
7193;SDS011;3638;48.820;9.244;2023-11-19T12:23:44;1.52;;;1.17;;
7193;SDS011;3638;48.820;9.244;2023-11-19T12:26:31;2.38;;;1.33;;
7193;SDS011;3638;48.820;9.244;2023-11-19T12:29:00;3.65;;;1.50;;
7193;SDS011;3638;48.820;9.244;2023-11-19T12:31:30;1.90;;;1.75;;
7193;SDS011;3638;48.820;9.244;2023-11-19T12:33:57;2.47;;;1.10;;
7193;SDS011;3638;48.820;9.244;2023-11-19T12:36:25;3.20;;;1.20;;
7193;SDS011;3638;48.820;9.244;2023-11-19T12:38:52;2.80;;;1.38;;
7193;SDS011;3638;48.820;9.244;2023-11-19T12:41:19;1.77;;;1.40;;
7193;SDS011;3638;48.820;9.244;2023-11-19T12:43:48;1.45;;;1.35;;
7193;SDS011;3638;48.820;9.244;2023-11-19T12:46:16;2.88;;;1.40;;
7193;SDS011;3638;48.820;9.244;2023-11-19T12:48:46;4.43;;;1.80;;
7193;SDS011;3638;48.820;9.244;2023-11-19T12:51:13;2.45;;;1.60;;
7193;SDS011;3638;48.820;9.244;2023-11-19T12:53:48;4.43;;;2.28;;
7193;SDS011;3638;48.820;9.244;2023-11-19T12:56:19;8.80;;;5.88;;
7193;SDS011;3638;48.820;9.244;2023-11-19T12:58:46;5.35;;;4.32;;
7193;SDS011;3638;48.820;9.244;2023-11-19T13:01:15;3.75;;;2.65;;
7193;SDS011;3638;48.820;9.244;2023-11-19T13:03:47;1.40;;;1.20;;
7193;SDS011;3638;48.820;9.244;2023-11-19T13:06:16;4.60;;;1.50;;
7193;SDS011;3638;48.820;9.244;2023-11-19T13:08:46;1.63;;;1.20;;
7193;SDS011;3638;48.820;9.244;2023-11-19T13:11:29;1.70;;;1.20;;
7193;SDS011;3638;48.820;9.244;2023-11-19T13:13:58;1.80;;;1.33;;
7193;SDS011;3638;48.820;9.244;2023-11-19T13:16:28;2.20;;;1.20;;
7193;SDS011;3638;48.820;9.244;2023-11-19T13:18:56;2.05;;;1.15;;
7193;SDS011;3638;48.820;9.244;2023-11-19T13:21:25;2.28;;;1.20;;
7193;SDS011;3638;48.820;9.244;2023-11-19T13:23:52;1.30;;;1.20;;
7193;SDS011;3638;48.820;9.244;2023-11-19T13:26:19;1.40;;;1.30;;
7193;SDS011;3638;48.820;9.244;2023-11-19T13:28:46;2.58;;;1.40;;
7193;SDS011;3638;48.820;9.244;2023-11-19T13:31:14;1.88;;;1.27;;
7193;SDS011;3638;48.820;9.244;2023-11-19T13:33:43;1.40;;;1.30;;
7193;SDS011;3638;48.820;9.244;2023-11-19T13:36:12;1.88;;;1.50;;
7193;SDS011;3638;48.820;9.244;2023-11-19T13:38:39;2.35;;;1.40;;
7193;SDS011;3638;48.820;9.244;2023-11-19T13:41:07;1.52;;;1.42;;
7193;SDS011;3638;48.820;9.244;2023-11-19T13:43:37;2.40;;;1.50;;
7193;SDS011;3638;48.820;9.244;2023-11-19T13:46:04;1.40;;;1.30;;
7193;SDS011;3638;48.820;9.244;2023-11-19T13:48:35;1.40;;;1.30;;
7193;SDS011;3638;48.820;9.244;2023-11-19T13:51:02;1.52;;;1.40;;
7193;SDS011;3638;48.820;9.244;2023-11-19T13:53:31;1.95;;;1.40;;
7193;SDS011;3638;48.820;9.244;2023-11-19T13:55:59;3.85;;;1.85;;
7193;SDS011;3638;48.820;9.244;2023-11-19T13:58:26;2.40;;;1.50;;
7193;SDS011;3638;48.820;9.244;2023-11-19T14:00:53;2.05;;;1.50;;
7193;SDS011;3638;48.820;9.244;2023-11-19T14:03:20;1.30;;;1.20;;
7193;SDS011;3638;48.820;9.244;2023-11-19T14:05:48;2.17;;;1.10;;
7193;SDS011;3638;48.820;9.244;2023-11-19T14:08:17;1.48;;;1.20;;
7193;SDS011;3638;48.820;9.244;2023-11-19T14:10:46;2.03;;;1.30;;
7193;SDS011;3638;48.820;9.244;2023-11-19T14:13:13;2.13;;;1.20;;
7193;SDS011;3638;48.820;9.244;2023-11-19T14:15:40;2.80;;;1.48;;
7193;SDS011;3638;48.820;9.244;2023-11-19T14:18:08;1.17;;;1.10;;
7193;SDS011;3638;48.820;9.244;2023-11-19T14:20:35;1.45;;;1.35;;
7193;SDS011;3638;48.820;9.244;2023-11-19T14:23:04;1.38;;;1.25;;
7193;SDS011;3638;48.820;9.244;2023-11-19T14:25:31;3.97;;;1.58;;
7193;SDS011;3638;48.820;9.244;2023-11-19T14:28:00;2.28;;;1.30;;
7193;SDS011;3638;48.820;9.244;2023-11-19T14:30:27;2.55;;;1.98;;
7193;SDS011;3638;48.820;9.244;2023-11-19T14:32:55;1.67;;;1.30;;
7193;SDS011;3638;48.820;9.244;2023-11-19T14:35:22;1.77;;;1.60;;
7193;SDS011;3638;48.820;9.244;2023-11-19T14:37:50;1.65;;;1.30;;
7193;SDS011;3638;48.820;9.244;2023-11-19T14:40:17;1.85;;;1.40;;
7193;SDS011;3638;48.820;9.244;2023-11-19T14:42:44;2.72;;;1.55;;
7193;SDS011;3638;48.820;9.244;2023-11-19T14:45:13;1.95;;;1.33;;
7193;SDS011;3638;48.820;9.244;2023-11-19T14:47:40;2.45;;;1.58;;
7193;SDS011;3638;48.820;9.244;2023-11-19T14:50:08;1.80;;;1.70;;
7193;SDS011;3638;48.820;9.244;2023-11-19T14:52:43;1.52;;;1.42;;
7193;SDS011;3638;48.820;9.244;2023-11-19T14:55:10;2.03;;;1.58;;
7193;SDS011;3638;48.820;9.244;2023-11-19T14:57:38;3.00;;;1.70;;
7193;SDS011;3638;48.820;9.244;2023-11-19T15:00:07;2.75;;;1.40;;
7193;SDS011;3638;48.820;9.244;2023-11-19T15:02:39;2.15;;;1.60;;
7193;SDS011;3638;48.820;9.244;2023-11-19T15:05:07;1.40;;;1.30;;
7193;SDS011;3638;48.820;9.244;2023-11-19T15:07:36;1.70;;;1.60;;
7193;SDS011;3638;48.820;9.244;2023-11-19T15:10:03;1.77;;;1.60;;
7193;SDS011;3638;48.820;9.244;2023-11-19T15:12:35;1.47;;;1.37;;
7193;SDS011;3638;48.820;9.244;2023-11-19T15:15:05;1.42;;;1.30;;
7193;SDS011;3638;48.820;9.244;2023-11-19T15:17:33;2.80;;;1.57;;
7193;SDS011;3638;48.820;9.244;2023-11-19T15:20:02;2.00;;;1.60;;
7193;SDS011;3638;48.820;9.244;2023-11-19T15:22:30;3.90;;;1.83;;